createdAt,value
2023-05-15T00:02:12.931Z,95.92
2023-05-15T00:05:16.154Z,95.89
2023-05-15T00:08:18.563Z,96.20
2023-05-15T00:11:23.529Z,95.95
2023-05-15T00:14:26.784Z,95.83
2023-05-15T00:17:29.369Z,95.96
2023-05-15T00:20:31.703Z,96.27
2023-05-15T00:23:34.335Z,96.34
2023-05-15T00:26:36.931Z,96.15
2023-05-15T00:29:39.568Z,95.99
2023-05-15T00:32:41.962Z,96.09
2023-05-15T00:35:45.295Z,95.93
2023-05-15T00:38:49.083Z,95.86
2023-05-15T00:41:52.432Z,95.93
2023-05-15T00:44:56.859Z,95.75
2023-05-15T00:48:01.382Z,95.84
2023-05-15T00:51:04.513Z,95.72
2023-05-15T00:54:08.365Z,95.82
2023-05-15T00:57:11.812Z,95.89
2023-05-15T01:00:16.936Z,95.89
2023-05-15T01:03:19.500Z,96.02
2023-05-15T01:06:22.244Z,96.16
2023-05-15T01:09:25.620Z,95.87
2023-05-15T01:12:31.871Z,96.00
2023-05-15T01:15:34.393Z,96.28
2023-05-15T01:18:37.781Z,96.24
2023-05-15T01:21:55.517Z,96.10
2023-05-15T01:25:16.851Z,95.96
2023-05-15T01:28:25.289Z,96.02
2023-05-15T01:31:32.162Z,96.01
2023-05-15T01:34:46.151Z,96.02
2023-05-15T01:38:09.156Z,96.13
2023-05-15T01:41:24.699Z,96.12
2023-05-15T01:44:51.093Z,96.40
2023-05-15T01:47:55.909Z,96.49
2023-05-15T01:51:03.425Z,96.51
2023-05-15T01:54:08.261Z,96.62
2023-05-15T01:57:12.696Z,96.60
2023-05-15T02:00:15.800Z,96.66
2023-05-15T02:03:19.337Z,96.52
2023-05-15T02:06:23.163Z,96.28
2023-05-15T02:09:26.248Z,96.38
2023-05-15T02:12:29.193Z,96.37
2023-05-15T02:15:32.105Z,96.20
2023-05-15T02:18:34.528Z,96.07
2023-05-15T02:21:37.238Z,96.15
2023-05-15T02:24:39.643Z,96.03
2023-05-15T02:27:58.114Z,95.87
2023-05-15T02:31:08.264Z,96.01
2023-05-15T02:34:14.812Z,96.01
2023-05-15T02:37:24.781Z,95.93
2023-05-15T02:40:28.705Z,95.79
2023-05-15T02:43:31.837Z,95.85
2023-05-15T02:46:34.703Z,95.71
2023-05-15T02:49:37.976Z,95.33
2023-05-15T02:52:41.125Z,95.22
2023-05-15T02:55:43.514Z,95.52
2023-05-15T02:58:46.238Z,95.59
2023-05-15T03:01:48.948Z,95.71
2023-05-15T03:04:51.743Z,95.71
2023-05-15T03:07:54.088Z,95.76
2023-05-15T03:10:56.718Z,95.69
2023-05-15T03:14:00.252Z,95.79
2023-05-15T03:17:03.648Z,95.82
2023-05-15T03:20:06.894Z,95.91
2023-05-15T03:23:09.635Z,95.97
2023-05-15T03:26:12.083Z,95.91
2023-05-15T03:29:14.700Z,95.85
2023-05-15T03:32:17.591Z,95.82
2023-05-15T03:35:20.254Z,95.82
2023-05-15T03:38:22.583Z,95.94
2023-05-15T03:41:26.130Z,95.92
2023-05-15T03:44:29.640Z,95.90
2023-05-15T03:47:32.835Z,96.14
2023-05-15T03:50:35.382Z,96.00
2023-05-15T03:53:38.665Z,95.98
2023-05-15T03:56:41.057Z,95.83
2023-05-15T03:59:44.095Z,95.90
2023-05-15T04:02:46.542Z,95.77
2023-05-15T04:05:50.155Z,95.98
2023-05-15T04:08:52.555Z,95.87
2023-05-15T04:11:55.114Z,95.83
2023-05-15T04:15:18.369Z,95.60
2023-05-15T04:18:20.969Z,95.66
2023-05-15T04:21:23.374Z,95.60
2023-05-15T04:24:26.015Z,95.67
2023-05-15T04:27:28.610Z,95.45
2023-05-15T04:30:31.361Z,95.10
2023-05-15T04:33:33.682Z,95.45
2023-05-15T04:36:36.526Z,95.42
2023-05-15T04:39:39.050Z,95.45
2023-05-15T04:42:42.191Z,95.39
2023-05-15T04:45:44.545Z,95.32
2023-05-15T04:48:47.168Z,95.34
2023-05-15T04:51:49.937Z,95.43
2023-05-15T04:54:55.385Z,95.42
2023-05-15T04:57:57.705Z,95.30
2023-05-15T05:01:03.496Z,95.09
2023-05-15T05:04:06.378Z,95.09
2023-05-15T05:07:09.006Z,95.40
2023-05-15T05:10:11.699Z,95.28
2023-05-15T05:13:14.282Z,95.25
2023-05-15T05:16:16.691Z,95.12
2023-05-15T05:19:19.424Z,94.99
2023-05-15T05:22:21.813Z,94.82
2023-05-15T05:25:24.617Z,94.61
2023-05-15T05:28:27.111Z,94.47
2023-05-15T05:31:29.928Z,93.98
2023-05-15T05:34:32.472Z,93.60
2023-05-15T05:37:35.220Z,93.15
2023-05-15T05:40:38.180Z,93.11
2023-05-15T05:43:40.891Z,93.31
2023-05-15T05:46:43.424Z,93.18
2023-05-15T05:49:48.193Z,92.80
2023-05-15T05:52:50.883Z,92.40
2023-05-15T05:55:54.345Z,91.98
2023-05-15T05:58:56.884Z,92.49
2023-05-15T06:01:59.538Z,91.17
2023-05-15T06:05:02.269Z,90.64
2023-05-15T06:08:05.045Z,90.18
2023-05-15T06:11:07.768Z,90.17
2023-05-15T06:14:10.249Z,90.03
2023-05-15T06:17:15.090Z,89.94
2023-05-15T06:20:18.044Z,90.03
2023-05-15T06:23:21.846Z,89.39
2023-05-15T06:26:26.232Z,89.16
2023-05-15T06:29:28.960Z,88.77
2023-05-15T06:32:34.593Z,88.76
2023-05-15T06:35:37.544Z,88.66
2023-05-15T06:38:40.038Z,88.13
2023-05-15T06:41:42.726Z,88.19
2023-05-15T06:44:47.678Z,87.53
2023-05-15T06:47:50.387Z,87.43
2023-05-15T06:50:52.823Z,87.29
2023-05-15T06:53:55.599Z,87.87
2023-05-15T06:56:57.981Z,87.04
2023-05-15T07:00:00.652Z,86.65
2023-05-15T07:03:03.009Z,86.80
2023-05-15T07:06:05.845Z,86.17
2023-05-15T07:09:08.268Z,85.44
2023-05-15T07:12:10.930Z,84.77
2023-05-15T07:15:13.306Z,84.99
2023-05-15T07:18:16.198Z,83.95
2023-05-15T07:21:18.681Z,83.98
2023-05-15T07:24:21.368Z,84.52
2023-05-15T07:27:23.722Z,84.92
2023-05-15T07:30:26.665Z,85.07
2023-05-15T07:33:29.197Z,85.95
2023-05-15T07:36:31.916Z,85.66
2023-05-15T07:39:34.450Z,85.31
2023-05-15T07:42:37.159Z,85.67
2023-05-15T07:45:39.588Z,85.62
2023-05-15T07:48:42.259Z,84.77
2023-05-15T07:51:44.895Z,84.76
2023-05-15T07:54:47.607Z,84.80
2023-05-15T08:00:55.717Z,83.39
2023-05-15T08:03:58.658Z,83.50
2023-05-15T08:07:01.192Z,83.49
2023-05-15T08:10:06.323Z,83.10
2023-05-15T08:13:08.854Z,83.31
2023-05-15T08:16:11.634Z,83.36
2023-05-15T08:19:14.106Z,82.70
2023-05-15T08:22:17.126Z,82.92
2023-05-15T08:25:19.736Z,82.58
2023-05-15T08:28:24.350Z,82.51
2023-05-15T08:31:26.796Z,82.70
2023-05-15T08:34:30.099Z,83.42
2023-05-15T08:37:33.716Z,83.26
2023-05-15T08:40:39.683Z,83.26
2023-05-15T08:43:44.003Z,82.32
2023-05-15T08:46:47.777Z,81.53
2023-05-15T08:50:04.037Z,80.29
2023-05-15T08:53:07.017Z,79.64
2023-05-15T08:56:09.595Z,79.79
2023-05-15T08:59:12.273Z,79.89
2023-05-15T09:02:16.006Z,78.30
2023-05-15T09:05:18.621Z,78.18
2023-05-15T09:08:23.881Z,76.31
2023-05-15T09:11:27.073Z,73.35
2023-05-15T09:14:29.570Z,72.36
2023-05-15T09:17:32.264Z,70.20
2023-05-15T09:20:38.418Z,69.08
2023-05-15T09:23:41.016Z,68.84
2023-05-15T09:26:44.868Z,68.35
2023-05-15T09:29:47.568Z,69.09
2023-05-15T09:32:50.154Z,69.07
2023-05-15T09:35:53.220Z,69.19
2023-05-15T09:39:01.647Z,69.96
2023-05-15T09:42:09.839Z,69.41
2023-05-15T09:45:18.383Z,70.37
2023-05-15T09:48:21.382Z,70.59
2023-05-15T09:51:23.921Z,70.11
2023-05-15T09:54:27.594Z,70.35
2023-05-15T09:57:29.992Z,70.31
2023-05-15T10:00:34.227Z,70.49
2023-05-15T10:03:36.958Z,71.04
2023-05-15T10:06:47.538Z,70.24
2023-05-15T10:09:50.183Z,70.47
2023-05-15T10:12:54.312Z,70.92
2023-05-15T10:15:58.941Z,71.00
2023-05-15T10:19:05.373Z,69.73
2023-05-15T10:22:11.112Z,68.56
2023-05-15T10:25:23.856Z,67.63
2023-05-15T10:28:28.557Z,65.98
2023-05-15T10:31:31.882Z,65.81
2023-05-15T10:34:37.708Z,65.80
2023-05-15T10:37:40.976Z,64.71
2023-05-15T10:40:45.166Z,63.99
2023-05-15T10:43:49.234Z,63.60
2023-05-15T10:46:53.047Z,63.44
2023-05-15T10:49:55.650Z,62.69
2023-05-15T10:52:58.421Z,62.13
2023-05-15T10:56:02.620Z,62.68
2023-05-15T10:59:10.392Z,62.39
2023-05-15T11:02:27.252Z,62.95
2023-05-15T11:05:49.891Z,62.80
2023-05-15T11:08:52.393Z,62.97
2023-05-15T11:12:00.405Z,61.58
2023-05-15T11:15:02.739Z,60.03
2023-05-15T11:18:06.856Z,59.90
2023-05-15T11:21:09.910Z,60.36
2023-05-15T11:24:12.544Z,61.27
2023-05-15T11:27:20.483Z,61.55
2023-05-15T11:30:35.196Z,60.58
2023-05-15T11:33:39.705Z,59.15
2023-05-15T11:36:43.713Z,59.28
2023-05-15T11:39:47.612Z,59.79
2023-05-15T11:43:32.526Z,59.89
2023-05-15T11:46:35.319Z,59.20
2023-05-15T11:49:38.731Z,59.88
2023-05-15T11:52:41.163Z,60.04
2023-05-15T11:55:44.666Z,60.11
2023-05-15T11:58:51.033Z,61.55
2023-05-15T12:01:53.666Z,61.32
2023-05-15T12:04:56.334Z,61.04
2023-05-15T12:07:58.772Z,63.76
2023-05-15T12:11:02.423Z,63.95
2023-05-15T12:14:04.755Z,64.16
2023-05-15T12:17:07.400Z,64.42
2023-05-15T12:20:12.459Z,64.44
2023-05-15T12:23:18.460Z,64.13
2023-05-15T12:26:23.218Z,63.55
2023-05-15T12:29:27.051Z,64.28
2023-05-15T12:32:32.297Z,64.96
2023-05-15T12:35:43.460Z,65.50
2023-05-15T12:38:45.870Z,65.84
2023-05-15T12:41:50.055Z,66.33
2023-05-15T12:44:53.516Z,66.62
2023-05-15T12:47:58.533Z,66.75
2023-05-15T12:51:08.045Z,66.15
2023-05-15T12:54:18.493Z,65.85
2023-05-15T12:57:21.759Z,65.78
2023-05-15T13:00:25.639Z,65.63
2023-05-15T13:03:29.130Z,64.95
2023-05-15T13:06:42.314Z,64.97
2023-05-15T13:10:03.344Z,64.20
2023-05-15T13:13:06.076Z,64.67
2023-05-15T13:16:18.669Z,64.51
2023-05-15T13:19:21.406Z,64.78
2023-05-15T13:22:23.786Z,64.97
2023-05-15T13:25:26.527Z,65.54
2023-05-15T13:28:28.897Z,65.25
2023-05-15T13:31:32.472Z,65.32
2023-05-15T13:34:35.131Z,64.71
2023-05-15T13:37:38.386Z,63.60
2023-05-15T13:40:40.716Z,63.83
2023-05-15T13:43:43.414Z,63.46
2023-05-15T13:46:46.498Z,63.70
2023-05-15T13:49:49.174Z,63.14
2023-05-15T13:52:51.672Z,62.66
2023-05-15T13:55:54.333Z,62.61
2023-05-15T13:58:56.820Z,62.85
2023-05-15T14:01:59.478Z,62.53
2023-05-15T14:05:02.182Z,63.18
2023-05-15T14:08:04.821Z,63.50
2023-05-15T14:11:07.470Z,64.01
2023-05-15T14:14:09.848Z,64.32
2023-05-15T14:17:13.226Z,64.23
2023-05-15T14:20:15.743Z,64.47
2023-05-15T14:23:19.373Z,64.41
2023-05-15T14:26:22.100Z,64.49
2023-05-15T14:29:24.904Z,64.37
2023-05-15T14:32:27.504Z,64.32
2023-05-15T14:35:30.186Z,64.47
2023-05-15T14:38:32.601Z,64.50
2023-05-15T14:41:35.222Z,64.25
2023-05-15T14:44:37.567Z,64.72
2023-05-15T14:47:40.249Z,64.05
2023-05-15T14:50:42.622Z,64.57
2023-05-15T14:53:45.372Z,64.32
2023-05-15T14:56:48.621Z,64.45
2023-05-15T14:59:51.268Z,63.77
2023-05-15T15:02:54.031Z,64.58
2023-05-15T15:05:57.231Z,65.12
2023-05-15T15:08:59.553Z,65.27
2023-05-15T15:12:02.125Z,65.21
2023-05-15T15:15:06.662Z,72.40
2023-05-15T15:18:09.474Z,73.18
2023-05-15T15:21:12.504Z,73.80
2023-05-15T15:24:16.660Z,73.64
2023-05-15T15:27:19.005Z,73.90
2023-05-15T15:30:21.795Z,72.90
2023-05-15T15:33:24.189Z,72.97
2023-05-15T15:36:27.106Z,72.83
2023-05-15T15:39:29.398Z,72.77
2023-05-15T15:42:32.112Z,72.11
2023-05-15T15:45:34.450Z,71.86
2023-05-15T15:48:37.119Z,71.34
2023-05-15T15:51:41.230Z,71.37
2023-05-15T15:54:47.126Z,70.90
2023-05-15T15:57:49.539Z,69.63
2023-05-15T16:00:52.570Z,68.70
2023-05-15T16:03:55.518Z,69.86
2023-05-15T16:06:57.881Z,69.84
2023-05-15T16:10:11.924Z,68.23
2023-05-15T16:13:15.152Z,67.67
2023-05-15T16:16:18.524Z,66.57
2023-05-15T16:19:21.840Z,66.81
2023-05-15T16:22:24.715Z,65.60
2023-05-15T16:25:27.049Z,65.39
2023-05-15T16:28:29.732Z,65.11
2023-05-15T16:31:32.478Z,64.90
2023-05-15T16:34:35.661Z,64.96
2023-05-15T16:37:38.203Z,65.28
2023-05-15T16:40:41.314Z,65.35
2023-05-15T16:43:44.071Z,65.31
2023-05-15T16:46:46.796Z,65.14
2023-05-15T16:49:50.105Z,65.27
2023-05-15T16:52:53.369Z,63.75
2023-05-15T16:55:55.761Z,63.68
2023-05-15T16:58:58.412Z,63.90
2023-05-15T17:02:01.258Z,63.86
2023-05-15T17:05:04.602Z,64.04
2023-05-15T17:08:06.980Z,64.24
2023-05-15T17:11:10.401Z,65.03
2023-05-15T17:14:12.781Z,65.04
2023-05-15T17:17:15.439Z,65.85
2023-05-15T17:20:17.919Z,65.03
2023-05-15T17:23:22.848Z,64.92
2023-05-15T17:26:26.160Z,64.91
2023-05-15T17:29:28.778Z,64.59
2023-05-15T17:32:31.176Z,64.15
2023-05-15T17:35:34.024Z,63.70
2023-05-15T17:38:36.464Z,63.37
2023-05-15T17:41:39.139Z,63.23
2023-05-15T17:44:41.482Z,63.82
2023-05-15T17:47:44.537Z,64.24
2023-05-15T17:50:46.969Z,64.47
2023-05-15T17:53:49.583Z,64.59
2023-05-15T17:56:51.863Z,64.45
2023-05-15T17:59:54.485Z,64.39
2023-05-15T18:02:56.854Z,64.67
2023-05-15T18:05:59.806Z,65.26
2023-05-15T18:09:02.380Z,65.16
2023-05-15T18:12:06.247Z,65.52
2023-05-15T18:15:09.074Z,65.54
2023-05-15T18:18:11.780Z,65.68
2023-05-15T18:21:15.337Z,65.66
2023-05-15T18:24:20.771Z,66.09
2023-05-15T18:27:23.212Z,66.31
2023-05-15T18:30:26.069Z,66.61
2023-05-15T18:33:28.546Z,66.81
2023-05-15T18:36:31.270Z,67.20
2023-05-15T18:39:33.647Z,67.30
2023-05-15T18:42:36.275Z,67.70
2023-05-15T18:45:38.822Z,68.21
2023-05-15T18:48:41.545Z,68.20
2023-05-15T18:51:43.867Z,68.78
2023-05-15T18:54:46.807Z,68.81
2023-05-15T18:57:49.257Z,69.24
2023-05-15T19:00:51.964Z,69.14
2023-05-15T19:03:54.325Z,69.26
2023-05-15T19:06:56.935Z,69.82
2023-05-15T19:10:02.224Z,70.02
2023-05-15T19:13:04.967Z,69.84
2023-05-15T19:16:07.765Z,69.89
2023-05-15T19:19:10.775Z,69.67
2023-05-15T19:22:13.680Z,69.91
2023-05-15T19:25:16.335Z,70.49
2023-05-15T19:28:18.724Z,70.65
2023-05-15T19:34:30.162Z,71.20
2023-05-15T19:37:32.770Z,71.27
2023-05-15T19:40:35.897Z,71.44
2023-05-15T19:43:39.841Z,72.05
2023-05-15T19:46:42.258Z,72.47
2023-05-15T19:49:45.553Z,72.81
2023-05-15T19:52:47.866Z,72.96
2023-05-15T19:55:50.697Z,73.28
2023-05-15T19:58:53.032Z,73.45
2023-05-15T20:01:55.839Z,73.55
2023-05-15T20:04:58.540Z,73.18
2023-05-15T20:08:00.924Z,73.28
2023-05-15T20:11:03.664Z,73.52
2023-05-15T20:14:06.104Z,73.72
2023-05-15T20:17:08.709Z,73.82
2023-05-15T20:20:12.082Z,74.14
2023-05-15T20:23:14.718Z,74.37
2023-05-15T20:26:18.844Z,74.70
2023-05-15T20:29:21.505Z,74.62
2023-05-15T20:32:23.876Z,74.99
2023-05-15T20:35:26.894Z,74.51
2023-05-15T20:38:29.445Z,74.91
2023-05-15T20:41:32.052Z,75.12
2023-05-15T20:44:36.740Z,75.12
2023-05-15T20:47:40.315Z,74.93
2023-05-15T20:50:42.748Z,75.22
2023-05-15T20:53:45.509Z,75.44
2023-05-15T20:56:47.819Z,75.28
2023-05-15T20:59:50.704Z,75.13
2023-05-15T21:02:53.097Z,75.25
2023-05-15T21:05:57.456Z,75.51
2023-05-15T21:09:00.276Z,75.21
2023-05-15T21:12:03.857Z,74.62
2023-05-15T21:15:07.397Z,74.30
2023-05-15T21:18:10.230Z,74.66
2023-05-15T21:21:12.581Z,74.72
2023-05-15T21:24:16.381Z,74.48
2023-05-15T21:27:18.754Z,75.12
2023-05-15T21:30:21.504Z,75.53
2023-05-15T21:33:23.948Z,75.82
2023-05-15T21:36:26.568Z,76.92
2023-05-15T21:39:28.895Z,76.56
2023-05-15T21:42:32.129Z,76.49
2023-05-15T21:45:34.443Z,76.62
2023-05-15T21:48:37.034Z,77.12
2023-05-15T21:51:39.323Z,77.01
2023-05-15T21:54:43.844Z,77.30
2023-05-15T21:57:46.211Z,77.02
2023-05-15T22:00:48.918Z,77.40
2023-05-15T22:03:51.663Z,77.56
2023-05-15T22:06:54.142Z,77.88
2023-05-15T22:09:56.794Z,77.70
2023-05-15T22:13:02.588Z,77.68
2023-05-15T22:16:06.333Z,77.67
2023-05-15T22:19:15.853Z,77.61
2023-05-15T22:22:24.380Z,77.16
2023-05-15T22:25:26.928Z,76.58
2023-05-15T22:28:29.513Z,76.49
2023-05-15T22:31:31.912Z,76.17
2023-05-15T22:34:34.556Z,76.00
2023-05-15T22:37:37.022Z,75.72
2023-05-15T22:40:39.627Z,75.39
2023-05-15T22:43:42.016Z,75.15
2023-05-15T22:46:44.634Z,74.94
2023-05-15T22:49:46.982Z,74.37
2023-05-15T22:52:49.568Z,74.45
2023-05-15T22:55:51.870Z,74.33
2023-05-15T22:58:56.261Z,74.47
2023-05-15T23:01:58.828Z,74.08
2023-05-15T23:05:01.813Z,74.62
2023-05-15T23:08:04.343Z,74.66
2023-05-15T23:11:06.982Z,74.85
2023-05-15T23:14:09.616Z,75.21
2023-05-15T23:17:12.654Z,74.73
2023-05-15T23:20:15.382Z,74.76
2023-05-15T23:23:19.249Z,74.57
2023-05-15T23:26:22.130Z,74.84
2023-05-15T23:29:24.749Z,75.07
2023-05-15T23:32:27.101Z,75.58
2023-05-15T23:35:29.752Z,76.70
2023-05-15T23:38:32.183Z,77.67
2023-05-15T23:41:34.839Z,78.80
2023-05-15T23:44:37.180Z,79.48
2023-05-15T23:47:40.692Z,79.89
2023-05-15T23:50:43.094Z,79.98
2023-05-15T23:53:45.652Z,79.94
2023-05-15T23:56:47.932Z,79.63
2023-05-15T23:59:51.151Z,79.39
